createdAt,value
2023-03-15T00:01:12.359Z,2.83
2023-03-15T00:03:39.911Z,3.20
2023-03-15T00:06:07.247Z,2.93
2023-03-15T00:08:34.383Z,3.00
2023-03-15T00:11:01.912Z,2.47
2023-03-15T00:13:29.064Z,2.53
2023-03-15T00:15:58.265Z,2.60
2023-03-15T00:18:25.754Z,3.10
2023-03-15T00:20:52.951Z,2.43
2023-03-15T00:23:20.478Z,2.50
2023-03-15T00:25:48.185Z,3.10
2023-03-15T00:28:15.813Z,2.63
2023-03-15T00:30:43.296Z,3.30
2023-03-15T00:33:13.786Z,3.27
2023-03-15T00:35:42.244Z,3.60
2023-03-15T00:38:09.639Z,3.07
2023-03-15T00:40:37.555Z,3.53
2023-03-15T00:43:04.729Z,3.27
2023-03-15T00:45:32.003Z,3.40
2023-03-15T00:47:59.177Z,3.33
2023-03-15T00:50:26.327Z,3.63
2023-03-15T00:52:53.508Z,3.33
2023-03-15T00:55:21.728Z,3.83
2023-03-15T00:57:48.975Z,4.03
2023-03-15T01:00:20.853Z,3.93
2023-03-15T01:02:49.227Z,4.10
2023-03-15T01:05:16.425Z,4.47
2023-03-15T01:07:45.596Z,4.00
2023-03-15T01:10:13.652Z,4.23
2023-03-15T01:12:40.773Z,4.30
2023-03-15T01:15:08.769Z,4.83
2023-03-15T01:17:35.863Z,4.67
2023-03-15T01:20:05.401Z,4.50
2023-03-15T01:22:32.546Z,5.43
2023-03-15T01:24:59.789Z,5.37
2023-03-15T01:27:26.906Z,5.10
2023-03-15T01:29:54.079Z,4.67
2023-03-15T01:32:21.244Z,5.27
2023-03-15T01:34:48.540Z,5.37
2023-03-15T01:37:15.659Z,5.27
2023-03-15T01:39:43.273Z,5.47
2023-03-15T01:42:11.360Z,5.23
2023-03-15T01:44:49.981Z,5.03
2023-03-15T01:47:17.349Z,5.57
2023-03-15T01:49:45.383Z,6.60
2023-03-15T01:52:14.481Z,6.43
2023-03-15T01:54:41.626Z,5.73
2023-03-15T01:57:14.821Z,6.60
2023-03-15T01:59:45.864Z,7.03
2023-03-15T02:02:14.901Z,7.53
2023-03-15T02:04:46.550Z,7.57
2023-03-15T02:07:16.336Z,7.00
2023-03-15T02:09:48.322Z,7.27
2023-03-15T02:12:15.539Z,7.10
2023-03-15T02:14:44.062Z,7.10
2023-03-15T02:17:11.276Z,7.83
2023-03-15T02:19:38.684Z,8.13
2023-03-15T02:22:15.582Z,7.97
2023-03-15T02:24:44.257Z,8.27
2023-03-15T02:27:11.516Z,7.83
2023-03-15T02:29:38.835Z,8.40
2023-03-15T02:32:06.094Z,8.17
2023-03-15T02:34:33.239Z,8.37
2023-03-15T02:37:00.359Z,9.70
2023-03-15T02:39:27.512Z,9.60
2023-03-15T02:41:56.493Z,8.83
2023-03-15T02:44:26.610Z,9.50
2023-03-15T02:46:55.754Z,9.90
2023-03-15T02:49:24.394Z,9.93
2023-03-15T02:51:51.621Z,9.77
2023-03-15T02:54:18.741Z,10.03
2023-03-15T02:56:45.860Z,10.37
2023-03-15T02:59:13.016Z,10.17
2023-03-15T03:01:40.607Z,10.30
2023-03-15T03:04:07.767Z,11.67
2023-03-15T03:06:34.854Z,10.13
2023-03-15T03:09:04.497Z,10.50
2023-03-15T03:11:31.702Z,10.57
2023-03-15T03:13:58.842Z,10.57
2023-03-15T03:16:26.136Z,11.20
2023-03-15T03:18:53.330Z,11.07
2023-03-15T03:21:20.788Z,10.37
2023-03-15T03:23:47.913Z,10.00
2023-03-15T03:26:16.869Z,10.63
2023-03-15T03:28:45.250Z,10.67
2023-03-15T03:31:23.130Z,9.93
2023-03-15T03:33:50.427Z,10.57
2023-03-15T03:36:17.568Z,10.13
2023-03-15T03:38:46.443Z,9.43
2023-03-15T03:41:15.265Z,9.97
2023-03-15T03:43:42.481Z,9.83
2023-03-15T03:46:09.902Z,9.50
2023-03-15T03:48:37.119Z,9.60
2023-03-15T03:51:04.481Z,9.20
2023-03-15T03:53:31.592Z,8.57
2023-03-15T03:55:58.675Z,7.97
2023-03-15T03:58:25.831Z,8.10
2023-03-15T04:00:54.333Z,7.90
2023-03-15T04:03:27.174Z,7.20
2023-03-15T04:05:55.186Z,7.23
2023-03-15T04:08:22.721Z,7.30
2023-03-15T04:10:57.250Z,6.53
2023-03-15T04:13:25.389Z,6.30
2023-03-15T04:15:57.796Z,6.10
2023-03-15T04:18:25.603Z,6.57
2023-03-15T04:20:54.731Z,5.90
2023-03-15T04:23:23.067Z,5.50
2023-03-15T04:25:50.992Z,6.00
2023-03-15T04:28:18.507Z,5.43
2023-03-15T04:30:46.555Z,5.10
2023-03-15T04:33:13.790Z,5.07
2023-03-15T04:35:42.561Z,5.40
2023-03-15T04:38:09.928Z,5.20
2023-03-15T04:40:37.135Z,5.10
2023-03-15T04:43:05.357Z,5.23
2023-03-15T04:45:32.953Z,4.53
2023-03-15T04:48:01.406Z,5.23
2023-03-15T04:50:29.014Z,5.30
2023-03-15T04:52:56.373Z,3.97
2023-03-15T04:55:24.192Z,5.20
2023-03-15T04:57:51.362Z,4.90
2023-03-15T05:00:18.619Z,4.90
2023-03-15T05:02:52.100Z,4.80
2023-03-15T05:05:19.348Z,5.03
2023-03-15T05:07:46.479Z,4.73
2023-03-15T05:10:13.694Z,5.07
2023-03-15T05:12:40.960Z,4.93
2023-03-15T05:15:08.471Z,4.90
2023-03-15T05:17:35.618Z,5.07
2023-03-15T05:20:07.196Z,5.17
2023-03-15T05:22:34.289Z,4.80
2023-03-15T05:25:01.417Z,5.23
2023-03-15T05:27:29.163Z,5.20
2023-03-15T05:29:56.287Z,5.80
2023-03-15T05:32:26.809Z,5.60
2023-03-15T05:34:56.973Z,5.87
2023-03-15T05:37:24.398Z,5.70
2023-03-15T05:39:51.946Z,5.37
2023-03-15T05:42:36.939Z,5.90
2023-03-15T05:45:04.111Z,6.10
2023-03-15T05:47:33.123Z,6.07
2023-03-15T05:50:00.819Z,6.80
2023-03-15T05:52:27.998Z,5.80
2023-03-15T05:54:55.117Z,5.80
2023-03-15T05:57:22.209Z,6.10
2023-03-15T05:59:49.401Z,5.70
2023-03-15T06:02:16.526Z,6.03
2023-03-15T06:04:43.641Z,5.93
2023-03-15T06:07:10.855Z,5.40
2023-03-15T06:09:37.998Z,6.33
2023-03-15T06:12:05.522Z,5.90
2023-03-15T06:14:32.757Z,6.20
2023-03-15T06:16:59.879Z,5.53
2023-03-15T06:19:27.077Z,5.13
2023-03-15T06:21:54.195Z,4.90
2023-03-15T06:24:21.297Z,5.13
2023-03-15T06:26:48.409Z,5.20
2023-03-15T06:29:17.170Z,5.60
2023-03-15T06:31:44.383Z,4.83
2023-03-15T06:34:11.908Z,5.03
2023-03-15T06:36:39.051Z,6.10
2023-03-15T06:39:06.194Z,5.20
2023-03-15T06:41:33.306Z,5.40
2023-03-15T06:44:00.616Z,5.23
2023-03-15T06:46:27.823Z,4.60
2023-03-15T06:48:54.965Z,5.33
2023-03-15T06:51:22.404Z,4.90
2023-03-15T06:53:49.777Z,4.57
2023-03-15T06:56:16.922Z,5.00
2023-03-15T06:58:44.037Z,4.80
2023-03-15T07:01:14.482Z,4.07
2023-03-15T07:03:42.107Z,4.67
2023-03-15T07:06:09.555Z,4.40
2023-03-15T07:08:36.751Z,3.43
2023-03-15T07:11:04.201Z,3.47
2023-03-15T07:13:31.328Z,3.80
2023-03-15T07:15:58.554Z,3.40
2023-03-15T07:18:25.742Z,3.30
2023-03-15T07:20:59.739Z,3.10
2023-03-15T07:23:27.238Z,3.33
2023-03-15T07:25:55.683Z,2.80
2023-03-15T07:28:23.682Z,3.00
2023-03-15T07:30:58.066Z,2.87
2023-03-15T07:33:26.595Z,3.33
2023-03-15T07:35:54.344Z,3.17
2023-03-15T07:38:22.595Z,3.10
2023-03-15T07:40:49.814Z,3.40
2023-03-15T07:43:17.100Z,3.13
2023-03-15T07:45:45.330Z,3.43
2023-03-15T07:48:12.475Z,3.30
2023-03-15T07:50:40.243Z,3.20
2023-03-15T07:53:07.611Z,3.20
2023-03-15T07:55:35.324Z,3.87
2023-03-15T07:58:03.022Z,3.70
2023-03-15T08:00:30.658Z,4.00
2023-03-15T08:02:57.834Z,4.50
2023-03-15T08:05:27.188Z,4.60
2023-03-15T08:07:56.671Z,4.13
2023-03-15T08:10:23.893Z,4.80
2023-03-15T08:12:51.018Z,5.30
2023-03-15T08:15:18.291Z,4.80
2023-03-15T08:17:45.367Z,5.57
2023-03-15T08:20:14.833Z,5.73
2023-03-15T08:22:44.922Z,5.23
2023-03-15T08:25:12.670Z,5.20
2023-03-15T08:27:40.189Z,5.40
2023-03-15T08:30:07.622Z,5.70
2023-03-15T08:32:34.775Z,5.73
2023-03-15T08:35:01.975Z,5.30
2023-03-15T08:37:29.206Z,6.30
2023-03-15T08:40:05.221Z,5.50
2023-03-15T08:42:32.342Z,5.40
2023-03-15T08:45:01.965Z,5.67
2023-03-15T08:47:29.131Z,5.93
2023-03-15T08:49:56.269Z,6.00
2023-03-15T08:52:23.621Z,5.57
2023-03-15T08:54:50.746Z,6.13
2023-03-15T08:57:17.935Z,5.27
2023-03-15T08:59:45.665Z,5.53
2023-03-15T09:02:13.351Z,4.80
2023-03-15T09:04:40.642Z,4.83
2023-03-15T09:07:07.809Z,4.03
2023-03-15T09:09:35.017Z,3.90
2023-03-15T09:12:02.159Z,3.80
2023-03-15T09:14:29.291Z,3.97
2023-03-15T09:16:56.466Z,3.83
2023-03-15T09:19:23.903Z,3.50
2023-03-15T09:21:51.347Z,3.50
2023-03-15T09:24:18.513Z,3.60
2023-03-15T09:26:45.720Z,3.30
2023-03-15T09:29:12.907Z,3.20
2023-03-15T09:31:40.006Z,3.10
2023-03-15T09:34:07.376Z,3.37
2023-03-15T09:36:34.721Z,3.50
2023-03-15T09:39:01.998Z,3.43
2023-03-15T09:41:31.975Z,3.23
2023-03-15T09:44:15.486Z,3.23
2023-03-15T09:47:01.773Z,3.13
2023-03-15T09:49:28.886Z,2.77
2023-03-15T09:51:58.057Z,2.97
2023-03-15T09:54:41.894Z,2.67
2023-03-15T09:57:38.168Z,2.97
2023-03-15T10:00:12.536Z,2.80
2023-03-15T10:02:43.707Z,2.77
2023-03-15T10:05:18.968Z,3.07
2023-03-15T10:07:46.642Z,2.70
2023-03-15T10:13:43.104Z,3.00
2023-03-15T10:16:13.035Z,3.33
2023-03-15T10:18:55.011Z,3.37
2023-03-15T10:21:42.359Z,2.90
2023-03-15T10:24:20.638Z,2.90
2023-03-15T10:26:48.880Z,2.67
2023-03-15T10:29:17.519Z,2.80
2023-03-15T10:31:49.507Z,2.93
2023-03-15T10:34:17.160Z,2.83
2023-03-15T10:36:45.593Z,3.30
2023-03-15T10:39:13.088Z,2.83
2023-03-15T10:41:44.422Z,2.53
2023-03-15T10:44:25.684Z,3.00
2023-03-15T10:47:21.366Z,2.80
2023-03-15T10:49:50.374Z,2.80
2023-03-15T10:52:27.939Z,3.80
2023-03-15T10:54:58.820Z,3.07
2023-03-15T10:57:34.754Z,3.00
2023-03-15T11:00:17.282Z,2.70
2023-03-15T11:02:51.861Z,3.30
2023-03-15T11:05:20.322Z,3.30
2023-03-15T11:07:57.718Z,3.00
2023-03-15T11:10:26.585Z,3.10
2023-03-15T11:13:12.271Z,3.17
2023-03-15T11:15:40.495Z,3.47
2023-03-15T11:18:09.473Z,3.13
2023-03-15T11:20:37.933Z,3.23
2023-03-15T11:23:16.216Z,2.93
2023-03-15T11:25:43.528Z,3.50
2023-03-15T11:28:18.692Z,3.73
2023-03-15T11:30:48.508Z,3.23
2023-03-15T11:33:25.090Z,3.57
2023-03-15T11:35:53.241Z,3.30
2023-03-15T11:38:34.345Z,3.27
2023-03-15T11:41:03.396Z,3.53
2023-03-15T11:43:35.173Z,2.90
2023-03-15T11:46:05.228Z,3.10
2023-03-15T11:48:40.744Z,3.00
2023-03-15T11:51:08.977Z,2.60
2023-03-15T11:53:37.912Z,2.67
2023-03-15T11:56:24.018Z,3.03
2023-03-15T11:59:02.052Z,2.70
2023-03-15T12:01:29.189Z,3.10
2023-03-15T12:04:15.831Z,2.80
2023-03-15T12:06:43.063Z,3.10
2023-03-15T12:09:30.560Z,2.87
2023-03-15T12:11:59.071Z,2.60
2023-03-15T12:14:28.988Z,2.80
2023-03-15T12:17:16.382Z,2.97
2023-03-15T12:19:43.598Z,3.20
2023-03-15T12:22:18.035Z,3.20
2023-03-15T12:24:46.741Z,3.23
2023-03-15T12:27:21.324Z,3.70
2023-03-15T12:29:50.894Z,3.23
2023-03-15T12:32:18.971Z,3.17
2023-03-15T12:34:53.490Z,3.20
2023-03-15T12:37:32.840Z,3.00
2023-03-15T12:39:59.943Z,3.30
2023-03-15T12:42:30.971Z,3.50
2023-03-15T12:45:16.613Z,3.07
2023-03-15T12:47:53.028Z,3.90
2023-03-15T12:50:35.378Z,2.93
2023-03-15T12:53:03.349Z,2.47
2023-03-15T12:55:32.904Z,2.33
2023-03-15T12:58:01.052Z,2.20
2023-03-15T13:00:30.465Z,2.23
2023-03-15T13:03:05.652Z,2.33
2023-03-15T13:05:36.243Z,2.43
2023-03-15T13:08:23.801Z,2.50
2023-03-15T13:11:11.768Z,2.70
2023-03-15T13:13:57.492Z,3.27
2023-03-15T13:16:24.596Z,3.00
2023-03-15T13:18:56.170Z,3.20
2023-03-15T13:21:49.258Z,3.10
2023-03-15T13:24:27.932Z,2.83
2023-03-15T13:27:15.295Z,3.40
2023-03-15T13:29:42.566Z,3.10
2023-03-15T13:32:14.351Z,3.20
2023-03-15T13:34:41.739Z,2.50
2023-03-15T13:37:16.429Z,2.20
2023-03-15T13:39:54.030Z,2.50
2023-03-15T13:42:24.120Z,2.50
2023-03-15T13:45:07.022Z,2.30
2023-03-15T13:47:37.050Z,2.20
2023-03-15T13:50:05.824Z,2.20
2023-03-15T13:52:33.066Z,2.40
2023-03-15T13:55:01.606Z,2.47
2023-03-15T13:57:30.274Z,2.73
2023-03-15T14:00:00.531Z,2.70
2023-03-15T14:02:33.777Z,1.97
2023-03-15T14:05:05.321Z,2.20
2023-03-15T14:07:40.639Z,1.97
2023-03-15T14:10:09.361Z,2.13
2023-03-15T14:12:36.582Z,2.00
2023-03-15T14:15:03.894Z,1.90
2023-03-15T14:17:32.188Z,1.70
2023-03-15T14:20:08.913Z,1.50
2023-03-15T14:22:37.067Z,1.20
2023-03-15T14:25:04.384Z,1.10
2023-03-15T14:27:31.998Z,1.00
2023-03-15T14:30:00.807Z,1.30
2023-03-15T14:32:28.752Z,1.10
2023-03-15T14:35:06.408Z,1.30
2023-03-15T14:37:36.692Z,1.37
2023-03-15T14:40:23.390Z,1.40
2023-03-15T14:42:51.328Z,1.70
2023-03-15T14:45:19.266Z,1.60
2023-03-15T14:47:56.663Z,1.90
2023-03-15T14:50:25.495Z,1.90
2023-03-15T14:52:54.183Z,1.70
2023-03-15T14:55:23.588Z,1.50
2023-03-15T14:57:51.441Z,2.10
2023-03-15T15:00:20.634Z,1.80
2023-03-15T15:02:52.634Z,1.90
2023-03-15T15:05:27.408Z,1.77
2023-03-15T15:07:59.724Z,1.60
2023-03-15T15:10:26.838Z,1.50
2023-03-15T15:13:05.543Z,1.50
2023-03-15T15:15:40.730Z,1.90
2023-03-15T15:18:18.547Z,1.80
2023-03-15T15:20:46.316Z,1.90
2023-03-15T15:23:19.532Z,2.00
2023-03-15T15:25:48.094Z,1.60
2023-03-15T15:28:27.281Z,1.90
2023-03-15T15:31:00.611Z,1.80
2023-03-15T15:33:27.747Z,1.97
2023-03-15T15:35:55.891Z,2.10
2023-03-15T15:38:27.045Z,2.27
2023-03-15T15:40:54.168Z,2.17
2023-03-15T15:43:21.324Z,2.20
2023-03-15T15:45:48.459Z,2.53
2023-03-15T15:48:15.650Z,2.50
2023-03-15T15:50:42.756Z,2.70
2023-03-15T15:53:13.336Z,2.33
2023-03-15T15:55:40.483Z,2.40
2023-03-15T15:58:09.762Z,2.20
2023-03-15T16:00:38.166Z,2.43
2023-03-15T16:03:14.929Z,2.33
2023-03-15T16:05:42.509Z,2.67
2023-03-15T16:08:35.778Z,2.50
2023-03-15T16:11:03.647Z,2.10
2023-03-15T16:13:30.793Z,2.07
2023-03-15T16:15:58.312Z,1.97
2023-03-15T16:18:25.549Z,2.30
2023-03-15T16:20:52.630Z,2.13
2023-03-15T16:23:22.379Z,2.40
2023-03-15T16:25:50.604Z,1.93
2023-03-15T16:28:17.770Z,2.20
2023-03-15T16:30:46.833Z,2.33
2023-03-15T16:33:16.294Z,2.80
2023-03-15T16:35:44.161Z,3.00
2023-03-15T16:38:16.404Z,3.70
2023-03-15T16:40:45.176Z,3.40
2023-03-15T16:43:13.838Z,3.27
2023-03-15T16:45:41.356Z,3.50
2023-03-15T16:48:08.496Z,4.93
2023-03-15T16:50:36.021Z,4.83
2023-03-15T16:53:04.754Z,4.27
2023-03-15T16:55:35.384Z,3.97
2023-03-15T16:58:03.510Z,3.83
2023-03-15T17:00:31.651Z,4.20
2023-03-15T17:03:00.079Z,3.23
2023-03-15T17:05:27.327Z,3.10
2023-03-15T17:07:55.373Z,3.40
2023-03-15T17:10:23.248Z,3.20
2023-03-15T17:12:54.734Z,3.07
2023-03-15T17:15:24.119Z,3.87
2023-03-15T17:17:51.871Z,3.13
2023-03-15T17:20:27.037Z,3.47
2023-03-15T17:22:55.955Z,3.13
2023-03-15T17:25:23.612Z,3.47
2023-03-15T17:27:50.949Z,5.10
2023-03-15T17:30:25.599Z,5.23
2023-03-15T17:32:53.889Z,4.87
2023-03-15T17:35:22.039Z,4.20
2023-03-15T17:37:49.220Z,3.90
2023-03-15T17:40:23.941Z,3.60
2023-03-15T17:42:51.646Z,3.70
2023-03-15T17:45:23.487Z,4.00
2023-03-15T17:47:51.617Z,4.10
2023-03-15T17:50:19.494Z,4.03
2023-03-15T17:52:48.878Z,4.20
2023-03-15T17:55:17.206Z,4.23
2023-03-15T17:57:54.086Z,5.07
2023-03-15T18:00:22.646Z,4.50
2023-03-15T18:02:55.690Z,4.93
2023-03-15T18:05:25.688Z,5.63
2023-03-15T18:08:00.610Z,6.50
2023-03-15T18:10:31.836Z,8.17
2023-03-15T18:12:58.907Z,8.53
2023-03-15T18:15:26.081Z,8.70
2023-03-15T18:17:53.213Z,8.70
2023-03-15T18:20:24.253Z,12.17
2023-03-15T18:22:52.016Z,14.20
2023-03-15T18:25:22.162Z,10.97
2023-03-15T18:27:49.616Z,11.07
2023-03-15T18:30:18.118Z,8.13
2023-03-15T18:32:45.722Z,8.10
2023-03-15T18:35:15.803Z,8.43
2023-03-15T18:37:42.991Z,7.50
2023-03-15T18:40:11.415Z,6.30
2023-03-15T18:42:38.588Z,6.10
2023-03-15T18:45:06.075Z,5.00
2023-03-15T18:47:33.296Z,5.40
2023-03-15T18:50:09.662Z,5.30
2023-03-15T18:52:37.452Z,5.30
2023-03-15T18:55:08.043Z,5.80
2023-03-15T18:57:41.358Z,6.30
2023-03-15T19:00:13.579Z,8.50
2023-03-15T19:02:45.223Z,9.07
2023-03-15T19:05:13.637Z,7.00
2023-03-15T19:07:41.168Z,6.53
2023-03-15T19:10:10.863Z,8.47
2023-03-15T19:12:37.990Z,9.80
2023-03-15T19:15:05.775Z,9.60
2023-03-15T19:17:33.102Z,8.97
2023-03-15T19:20:00.237Z,10.20
2023-03-15T19:22:30.855Z,13.50
2023-03-15T19:24:58.048Z,14.80
2023-03-15T19:27:25.221Z,13.30
2023-03-15T19:29:52.383Z,13.70
2023-03-15T19:32:20.445Z,13.73
2023-03-15T19:34:48.114Z,14.23
2023-03-15T19:37:15.297Z,15.47
2023-03-15T19:39:42.491Z,16.33
2023-03-15T19:42:09.566Z,16.00
2023-03-15T19:44:36.703Z,14.43
2023-03-15T19:47:03.886Z,12.73
2023-03-15T19:49:30.999Z,15.00
2023-03-15T19:51:58.132Z,15.13
2023-03-15T19:54:25.280Z,14.63
2023-03-15T19:56:53.948Z,13.80
2023-03-15T19:59:21.080Z,18.60
2023-03-15T20:01:48.226Z,19.30
2023-03-15T20:04:15.536Z,19.30
2023-03-15T20:06:42.697Z,19.80
2023-03-15T20:09:11.274Z,18.40
2023-03-15T20:11:38.499Z,18.20
2023-03-15T20:14:05.625Z,19.47
2023-03-15T20:16:32.863Z,18.07
2023-03-15T20:19:00.133Z,19.93
2023-03-15T20:21:27.290Z,19.33
2023-03-15T20:23:54.444Z,18.97
2023-03-15T20:26:23.786Z,21.60
2023-03-15T20:28:50.998Z,23.20
2023-03-15T20:31:19.279Z,25.73
2023-03-15T20:33:48.616Z,28.10
2023-03-15T20:36:16.389Z,29.20
2023-03-15T20:38:43.701Z,28.37
2023-03-15T20:41:13.756Z,28.17
2023-03-15T20:43:41.725Z,25.93
2023-03-15T20:46:09.923Z,21.63
2023-03-15T20:48:37.675Z,22.00
2023-03-15T20:51:05.371Z,19.03
2023-03-15T20:53:33.262Z,18.83
2023-03-15T20:56:00.930Z,19.77
2023-03-15T20:58:28.638Z,18.60
2023-03-15T21:01:16.860Z,19.40
2023-03-15T21:03:44.584Z,19.53
2023-03-15T21:06:11.799Z,18.80
2023-03-15T21:08:38.965Z,19.37
2023-03-15T21:11:06.724Z,21.13
2023-03-15T21:13:34.703Z,20.97
2023-03-15T21:16:04.356Z,23.17
2023-03-15T21:18:32.438Z,22.43
2023-03-15T21:21:04.014Z,21.53
2023-03-15T21:23:31.659Z,23.70
2023-03-15T21:25:59.493Z,27.53
2023-03-15T21:28:26.898Z,28.50
2023-03-15T21:30:54.538Z,27.70
2023-03-15T21:33:22.793Z,27.93
2023-03-15T21:35:50.115Z,26.53
2023-03-15T21:38:17.507Z,26.50
2023-03-15T21:40:48.477Z,25.40
2023-03-15T21:43:15.607Z,26.60
2023-03-15T21:45:42.813Z,26.77
2023-03-15T21:48:10.070Z,26.03
2023-03-15T21:50:37.228Z,25.17
2023-03-15T21:53:04.977Z,27.47
2023-03-15T21:55:33.809Z,26.50
2023-03-15T21:58:07.332Z,23.67
2023-03-15T22:00:34.865Z,22.73
2023-03-15T22:03:01.953Z,23.80
2023-03-15T22:05:29.051Z,24.00
2023-03-15T22:07:56.221Z,24.47
2023-03-15T22:10:23.708Z,26.20
2023-03-15T22:12:54.148Z,26.87
2023-03-15T22:15:24.779Z,26.67
2023-03-15T22:17:51.879Z,25.30
2023-03-15T22:20:19.055Z,25.00
2023-03-15T22:22:46.906Z,25.73
2023-03-15T22:25:14.540Z,26.43
2023-03-15T22:27:42.190Z,27.43
2023-03-15T22:30:10.433Z,26.70
2023-03-15T22:32:37.640Z,27.73
2023-03-15T22:35:05.682Z,29.43
2023-03-15T22:37:33.979Z,28.93
2023-03-15T22:40:01.184Z,26.23
2023-03-15T22:42:28.300Z,26.53
2023-03-15T22:44:55.554Z,27.87
2023-03-15T22:47:22.678Z,26.53
2023-03-15T22:49:50.105Z,26.87
2023-03-15T22:52:17.205Z,27.27
2023-03-15T22:54:44.442Z,26.77
2023-03-15T22:57:11.936Z,27.43
2023-03-15T22:59:39.509Z,27.00
2023-03-15T23:02:07.163Z,26.83
2023-03-15T23:04:34.362Z,27.47
2023-03-15T23:07:01.776Z,28.33
2023-03-15T23:09:28.946Z,28.70
2023-03-15T23:11:56.081Z,27.87
2023-03-15T23:14:23.209Z,28.47
2023-03-15T23:16:50.332Z,28.87
2023-03-15T23:19:17.406Z,28.10
2023-03-15T23:21:44.604Z,28.00
2023-03-15T23:24:13.867Z,27.47
2023-03-15T23:26:41.775Z,28.53
2023-03-15T23:29:10.864Z,28.20
2023-03-15T23:31:38.985Z,29.07
2023-03-15T23:34:07.101Z,30.83
2023-03-15T23:36:34.859Z,30.63
2023-03-15T23:39:01.987Z,30.23
2023-03-15T23:41:29.194Z,29.93
2023-03-15T23:43:56.377Z,30.03
2023-03-15T23:46:23.658Z,31.83
2023-03-15T23:48:52.357Z,31.43
2023-03-15T23:51:19.585Z,31.60
2023-03-15T23:53:46.750Z,31.43
2023-03-15T23:56:13.862Z,33.20
2023-03-15T23:58:40.989Z,32.07
